createdAt,value
2018-11-29T00:00:44.521Z,29.30
2018-11-29T00:01:44.486Z,28.20
2018-11-29T00:02:44.453Z,29.50
2018-11-29T00:03:44.426Z,28.20
2018-11-29T00:04:44.385Z,28.20
2018-11-29T00:05:44.352Z,28.30
2018-11-29T00:06:44.321Z,27.80
2018-11-29T00:07:44.283Z,28.00
2018-11-29T00:08:44.250Z,27.90
2018-11-29T00:09:44.219Z,29.20
2018-11-29T00:10:44.183Z,29.10
2018-11-29T00:11:44.148Z,29.00
2018-11-29T00:12:44.113Z,27.20
2018-11-29T00:13:44.083Z,26.90
2018-11-29T00:14:44.045Z,25.20
2018-11-29T00:15:44.012Z,30.90
2018-11-29T00:16:43.978Z,30.90
2018-11-29T00:17:43.944Z,28.50
2018-11-29T00:18:43.911Z,29.30
2018-11-29T00:19:43.877Z,29.70
2018-11-29T00:20:43.849Z,29.30
2018-11-29T00:21:43.812Z,28.40
2018-11-29T00:22:43.775Z,27.80
2018-11-29T00:23:43.739Z,29.20
2018-11-29T00:24:43.706Z,31.10
2018-11-29T00:25:43.672Z,30.70
2018-11-29T00:26:43.639Z,30.40
2018-11-29T00:27:43.604Z,31.20
2018-11-29T00:28:43.579Z,31.30
2018-11-29T00:29:43.538Z,31.10
2018-11-29T00:30:43.505Z,32.20
2018-11-29T00:31:43.469Z,30.50
2018-11-29T00:32:43.433Z,30.70
2018-11-29T00:33:43.399Z,31.70
2018-11-29T00:34:43.365Z,31.30
2018-11-29T00:35:43.331Z,30.40
2018-11-29T00:36:43.303Z,29.60
2018-11-29T00:37:43.263Z,31.30
2018-11-29T00:38:43.228Z,31.20
2018-11-29T00:39:43.194Z,30.60
2018-11-29T00:40:43.164Z,34.50
2018-11-29T00:41:43.130Z,31.80
2018-11-29T00:42:43.092Z,32.40
2018-11-29T00:43:43.055Z,32.50
2018-11-29T00:44:43.021Z,33.10
2018-11-29T00:45:42.990Z,30.60
2018-11-29T00:46:42.952Z,32.50
2018-11-29T00:47:42.921Z,30.70
2018-11-29T00:48:42.887Z,31.30
2018-11-29T00:49:42.850Z,31.70
2018-11-29T00:50:42.814Z,32.70
2018-11-29T00:51:42.780Z,31.20
2018-11-29T00:52:42.749Z,33.70
2018-11-29T00:53:42.711Z,32.30
2018-11-29T00:54:42.676Z,29.70
2018-11-29T00:55:42.644Z,32.30
2018-11-29T00:56:42.607Z,30.80
2018-11-29T00:57:42.574Z,31.80
2018-11-29T00:58:42.539Z,30.70
2018-11-29T00:59:42.506Z,31.60
2018-11-29T01:00:42.472Z,31.20
2018-11-29T01:01:42.439Z,31.00
2018-11-29T01:02:42.400Z,31.20
2018-11-29T01:03:42.368Z,30.30
2018-11-29T01:04:42.350Z,30.60
2018-11-29T01:05:42.299Z,32.60
2018-11-29T01:06:42.290Z,31.10
2018-11-29T01:07:42.234Z,32.20
2018-11-29T01:08:42.345Z,34.50
2018-11-29T01:09:42.160Z,31.60
2018-11-29T01:10:42.132Z,30.40
2018-11-29T01:11:42.095Z,34.40
2018-11-29T01:12:42.062Z,32.40
2018-11-29T01:13:42.025Z,31.10
2018-11-29T01:14:41.997Z,32.30
2018-11-29T01:15:41.955Z,34.80
2018-11-29T01:16:41.923Z,33.20
2018-11-29T01:17:41.885Z,32.10
2018-11-29T01:18:41.851Z,30.60
2018-11-29T01:19:41.966Z,33.50
2018-11-29T01:20:41.781Z,33.20
2018-11-29T01:21:41.749Z,32.80
2018-11-29T01:22:41.721Z,30.90
2018-11-29T01:23:41.678Z,32.70
2018-11-29T01:24:41.645Z,34.70
2018-11-29T01:25:41.615Z,32.80
2018-11-29T01:26:41.575Z,33.90
2018-11-29T01:27:41.547Z,32.40
2018-11-29T01:28:41.509Z,31.50
2018-11-29T01:29:41.474Z,32.20
2018-11-29T01:30:41.440Z,29.60
2018-11-29T01:31:41.404Z,30.20
2018-11-29T01:32:41.371Z,33.90
2018-11-29T01:33:41.336Z,34.90
2018-11-29T01:34:41.302Z,31.30
2018-11-29T01:35:41.269Z,34.30
2018-11-29T01:36:41.233Z,31.00
2018-11-29T01:37:41.252Z,33.60
2018-11-29T01:38:41.165Z,31.90
2018-11-29T01:39:41.134Z,32.10
2018-11-29T01:40:41.099Z,31.90
2018-11-29T01:41:41.063Z,31.30
2018-11-29T01:42:41.031Z,32.30
2018-11-29T01:43:40.997Z,32.10
2018-11-29T01:44:40.962Z,33.70
2018-11-29T01:45:40.925Z,33.30
2018-11-29T01:46:40.891Z,30.30
2018-11-29T01:47:40.859Z,32.10
2018-11-29T01:48:40.977Z,31.70
2018-11-29T01:49:40.791Z,30.50
2018-11-29T01:50:40.755Z,31.20
2018-11-29T01:51:40.720Z,30.10
2018-11-29T01:52:40.686Z,32.20
2018-11-29T01:53:40.652Z,31.20
2018-11-29T01:54:40.619Z,30.10
2018-11-29T01:55:40.586Z,33.50
2018-11-29T01:56:40.550Z,34.60
2018-11-29T01:57:40.517Z,32.10
2018-11-29T01:58:40.482Z,31.90
2018-11-29T01:59:40.447Z,31.60
2018-11-29T02:00:40.415Z,31.50
2018-11-29T02:01:40.382Z,31.30
2018-11-29T02:02:40.345Z,32.80
2018-11-29T02:03:40.312Z,29.90
2018-11-29T02:04:40.277Z,30.20
2018-11-29T02:05:40.245Z,32.20
2018-11-29T02:06:40.210Z,32.90
2018-11-29T02:07:40.174Z,34.30
2018-11-29T02:08:40.142Z,31.60
2018-11-29T02:09:40.107Z,30.00
2018-11-29T02:10:40.075Z,31.90
2018-11-29T02:11:40.040Z,34.00
2018-11-29T02:12:40.005Z,29.00
2018-11-29T02:13:39.982Z,32.10
2018-11-29T02:14:39.937Z,31.20
2018-11-29T02:15:39.902Z,32.30
2018-11-29T02:16:39.876Z,31.50
2018-11-29T02:17:39.834Z,31.40
2018-11-29T02:18:39.800Z,29.40
2018-11-29T02:19:39.767Z,31.40
2018-11-29T02:20:39.735Z,31.10
2018-11-29T02:21:39.700Z,32.00
2018-11-29T02:22:39.669Z,33.70
2018-11-29T02:23:39.631Z,35.40
2018-11-29T02:24:39.597Z,31.80
2018-11-29T02:25:39.564Z,31.30
2018-11-29T02:26:39.530Z,33.00
2018-11-29T02:27:39.495Z,34.00
2018-11-29T02:28:39.460Z,32.00
2018-11-29T02:29:39.426Z,31.60
2018-11-29T02:30:39.392Z,29.20
2018-11-29T02:31:39.361Z,30.60
2018-11-29T02:32:39.325Z,31.60
2018-11-29T02:33:39.292Z,30.50
2018-11-29T02:34:39.255Z,29.60
2018-11-29T02:35:39.224Z,33.50
2018-11-29T02:36:39.195Z,31.10
2018-11-29T02:37:39.156Z,30.90
2018-11-29T02:38:39.121Z,29.30
2018-11-29T02:39:39.086Z,32.60
2018-11-29T02:40:39.053Z,30.60
2018-11-29T02:41:39.021Z,31.00
2018-11-29T02:42:38.983Z,30.20
2018-11-29T02:43:38.955Z,31.20
2018-11-29T02:44:38.922Z,32.40
2018-11-29T02:45:38.885Z,29.20
2018-11-29T02:46:38.852Z,31.30
2018-11-29T02:47:38.815Z,30.60
2018-11-29T02:48:38.825Z,31.70
2018-11-29T02:49:38.746Z,31.20
2018-11-29T02:50:38.718Z,31.50
2018-11-29T02:51:38.685Z,31.90
2018-11-29T02:52:38.647Z,29.70
2018-11-29T02:53:38.612Z,29.80
2018-11-29T02:54:38.576Z,30.10
2018-11-29T02:55:38.550Z,31.60
2018-11-29T02:56:38.511Z,30.40
2018-11-29T02:57:38.478Z,29.80
2018-11-29T02:58:38.443Z,30.70
2018-11-29T02:59:38.408Z,29.60
2018-11-29T03:00:38.374Z,28.20
2018-11-29T03:01:38.343Z,29.70
2018-11-29T03:02:38.306Z,32.80
2018-11-29T03:03:38.274Z,31.50
2018-11-29T03:04:38.239Z,29.10
2018-11-29T03:05:38.207Z,29.60
2018-11-29T03:06:38.172Z,30.60
2018-11-29T03:07:38.136Z,30.60
2018-11-29T03:08:38.105Z,30.50
2018-11-29T03:09:38.070Z,28.40
2018-11-29T03:10:38.043Z,29.90
2018-11-29T03:11:38.005Z,29.50
2018-11-29T03:12:37.973Z,30.50
2018-11-29T03:13:37.966Z,31.30
2018-11-29T03:14:37.906Z,31.40
2018-11-29T03:15:37.867Z,30.40
2018-11-29T03:16:37.835Z,31.60
2018-11-29T03:17:37.800Z,32.10
2018-11-29T03:18:37.794Z,31.50
2018-11-29T03:19:37.737Z,31.00
2018-11-29T03:20:37.700Z,30.30
2018-11-29T03:21:37.665Z,30.10
2018-11-29T03:22:37.630Z,32.60
2018-11-29T03:23:37.597Z,31.20
2018-11-29T03:24:37.566Z,33.20
2018-11-29T03:25:37.527Z,30.60
2018-11-29T03:26:37.494Z,30.50
2018-11-29T03:27:37.465Z,30.00
2018-11-29T03:28:37.426Z,33.00
2018-11-29T03:29:37.396Z,34.70
2018-11-29T03:30:37.372Z,31.10
2018-11-29T03:31:37.332Z,28.90
2018-11-29T03:32:37.291Z,31.70
2018-11-29T03:33:37.408Z,31.60
2018-11-29T03:34:37.222Z,31.30
2018-11-29T03:35:37.187Z,30.80
2018-11-29T03:36:37.154Z,32.30
2018-11-29T03:37:37.120Z,32.00
2018-11-29T03:38:37.095Z,32.10
2018-11-29T03:39:37.202Z,30.70
2018-11-29T03:40:37.017Z,31.20
2018-11-29T03:41:36.983Z,31.20
2018-11-29T03:42:36.948Z,32.10
2018-11-29T03:43:36.915Z,29.30
2018-11-29T03:44:36.880Z,33.40
2018-11-29T03:45:36.847Z,30.50
2018-11-29T03:46:36.812Z,29.50
2018-11-29T03:47:36.782Z,31.80
2018-11-29T03:48:36.746Z,32.30
2018-11-29T03:49:36.711Z,31.00
2018-11-29T03:50:36.676Z,29.60
2018-11-29T03:51:36.643Z,30.00
2018-11-29T03:52:36.614Z,31.90
2018-11-29T03:53:36.574Z,30.40
2018-11-29T03:54:36.545Z,31.50
2018-11-29T03:55:36.508Z,29.60
2018-11-29T03:56:36.473Z,29.40
2018-11-29T03:57:36.438Z,32.60
2018-11-29T03:58:36.414Z,29.50
2018-11-29T03:59:36.371Z,32.30
2018-11-29T04:00:36.339Z,31.80
2018-11-29T04:01:36.304Z,29.70
2018-11-29T04:02:36.271Z,30.10
2018-11-29T04:03:36.236Z,30.30
2018-11-29T04:04:36.205Z,29.50
2018-11-29T04:05:36.169Z,30.90
2018-11-29T04:06:36.134Z,27.40
2018-11-29T04:07:36.104Z,30.70
2018-11-29T04:08:36.070Z,29.90
2018-11-29T04:09:36.036Z,31.60
2018-11-29T04:10:35.998Z,30.80
2018-11-29T04:11:35.965Z,31.00
2018-11-29T04:12:35.932Z,28.90
2018-11-29T04:13:35.899Z,31.90
2018-11-29T04:14:35.874Z,31.30
2018-11-29T04:15:35.831Z,32.60
2018-11-29T04:16:35.798Z,31.90
2018-11-29T04:17:40.548Z,34.50
2018-11-29T04:18:35.740Z,33.30
2018-11-29T04:19:35.695Z,33.90
2018-11-29T04:20:35.660Z,32.30
2018-11-29T04:21:35.626Z,33.80
2018-11-29T04:22:35.597Z,31.00
2018-11-29T04:23:35.558Z,33.10
2018-11-29T04:24:35.528Z,34.00
2018-11-29T04:25:35.494Z,36.70
2018-11-29T04:26:35.455Z,33.90
2018-11-29T04:27:35.425Z,34.10
2018-11-29T04:28:35.387Z,36.40
2018-11-29T04:29:35.355Z,36.30
2018-11-29T04:30:35.320Z,38.30
2018-11-29T04:31:35.285Z,36.40
2018-11-29T04:32:35.552Z,39.30
2018-11-29T04:33:35.216Z,37.70
2018-11-29T04:34:35.186Z,36.10
2018-11-29T04:35:35.148Z,38.60
2018-11-29T04:36:35.116Z,39.10
2018-11-29T04:37:35.083Z,37.60
2018-11-29T04:38:35.045Z,37.30
2018-11-29T04:39:35.017Z,40.50
2018-11-29T04:40:35.021Z,36.50
2018-11-29T04:41:34.941Z,37.50
2018-11-29T04:42:34.909Z,37.60
2018-11-29T04:43:34.878Z,35.00
2018-11-29T04:44:34.837Z,40.00
2018-11-29T04:45:34.805Z,39.30
2018-11-29T04:46:34.769Z,38.40
2018-11-29T04:47:34.741Z,39.60
2018-11-29T04:48:34.704Z,39.70
2018-11-29T04:49:34.665Z,40.50
2018-11-29T04:50:34.630Z,37.80
2018-11-29T04:51:34.608Z,41.10
2018-11-29T04:52:34.564Z,38.10
2018-11-29T04:53:34.531Z,41.70
2018-11-29T04:54:34.498Z,40.10
2018-11-29T04:55:34.609Z,44.10
2018-11-29T04:56:34.424Z,40.20
2018-11-29T04:57:34.390Z,40.40
2018-11-29T04:58:34.356Z,40.20
2018-11-29T04:59:34.318Z,42.00
2018-11-29T05:00:34.285Z,38.70
2018-11-29T05:01:34.260Z,42.80
2018-11-29T05:02:34.214Z,40.50
2018-11-29T05:03:34.180Z,40.90
2018-11-29T05:04:34.145Z,43.40
2018-11-29T05:05:34.122Z,41.80
2018-11-29T05:06:34.076Z,41.90
2018-11-29T05:07:34.043Z,42.50
2018-11-29T05:08:34.009Z,42.60
2018-11-29T05:09:33.972Z,43.60
2018-11-29T05:10:33.937Z,41.00
2018-11-29T05:11:33.904Z,40.10
2018-11-29T05:12:33.869Z,41.50
2018-11-29T05:13:33.835Z,41.50
2018-11-29T05:14:33.798Z,39.70
2018-11-29T05:15:33.766Z,42.80
2018-11-29T05:16:33.731Z,40.20
2018-11-29T05:17:33.694Z,43.00
2018-11-29T05:18:33.659Z,43.90
2018-11-29T05:19:33.625Z,44.00
2018-11-29T05:20:33.590Z,42.20
2018-11-29T05:21:33.561Z,45.30
2018-11-29T05:22:33.526Z,41.90
2018-11-29T05:23:33.486Z,44.20
2018-11-29T05:24:33.462Z,43.70
2018-11-29T05:25:33.417Z,45.60
2018-11-29T05:26:33.383Z,43.90
2018-11-29T05:27:33.349Z,42.20
2018-11-29T05:28:33.314Z,47.00
2018-11-29T05:29:33.279Z,42.40
2018-11-29T05:30:33.246Z,44.10
2018-11-29T05:31:33.209Z,45.20
2018-11-29T05:32:33.177Z,46.50
2018-11-29T05:33:33.143Z,44.30
2018-11-29T05:34:33.105Z,46.30
2018-11-29T05:35:33.099Z,45.20
2018-11-29T05:36:33.035Z,48.10
2018-11-29T05:37:33.003Z,49.90
2018-11-29T05:38:32.968Z,48.70
2018-11-29T05:39:32.935Z,45.20
2018-11-29T05:40:32.900Z,46.80
2018-11-29T05:41:32.864Z,47.40
2018-11-29T05:42:32.828Z,47.20
2018-11-29T05:43:32.796Z,46.30
2018-11-29T05:44:32.762Z,49.10
2018-11-29T05:45:32.727Z,49.90
2018-11-29T05:46:32.693Z,49.40
2018-11-29T05:47:32.656Z,50.90
2018-11-29T05:48:32.624Z,49.40
2018-11-29T05:49:32.589Z,49.50
2018-11-29T05:50:32.561Z,48.80
2018-11-29T05:51:32.521Z,48.30
2018-11-29T05:52:32.484Z,47.60
2018-11-29T05:53:32.460Z,47.40
2018-11-29T05:54:32.420Z,43.00
2018-11-29T05:55:32.383Z,47.30
2018-11-29T05:56:32.350Z,50.70
2018-11-29T05:57:32.315Z,51.60
2018-11-29T05:58:32.280Z,51.40
2018-11-29T05:59:32.245Z,45.30
2018-11-29T06:00:32.210Z,45.30
2018-11-29T06:01:32.175Z,48.40
2018-11-29T06:02:32.140Z,48.70
2018-11-29T06:03:32.108Z,48.30
2018-11-29T06:04:32.074Z,47.10
2018-11-29T06:05:32.043Z,48.80
2018-11-29T06:06:32.009Z,51.80
2018-11-29T06:07:31.969Z,51.70
2018-11-29T06:08:31.936Z,50.10
2018-11-29T06:09:31.907Z,49.40
2018-11-29T06:10:31.867Z,51.70
2018-11-29T06:11:31.831Z,47.50
2018-11-29T06:12:31.800Z,50.90
2018-11-29T06:13:31.766Z,50.20
2018-11-29T06:14:31.732Z,51.90
2018-11-29T06:15:31.694Z,54.20
2018-11-29T06:16:31.662Z,51.70
2018-11-29T06:17:31.628Z,48.80
2018-11-29T06:18:31.591Z,49.60
2018-11-29T06:19:31.597Z,49.80
2018-11-29T06:20:31.529Z,50.40
2018-11-29T06:21:31.490Z,51.20
2018-11-29T06:22:31.456Z,52.20
2018-11-29T06:23:31.419Z,53.20
2018-11-29T06:24:31.387Z,51.80
2018-11-29T06:25:31.353Z,50.60
2018-11-29T06:26:31.316Z,51.80
2018-11-29T06:27:31.287Z,51.50
2018-11-29T06:28:31.249Z,51.70
2018-11-29T06:29:31.219Z,50.20
2018-11-29T06:30:31.181Z,55.30
2018-11-29T06:31:31.148Z,51.70
2018-11-29T06:32:31.112Z,53.90
2018-11-29T06:33:31.078Z,52.50
2018-11-29T06:34:31.043Z,52.90
2018-11-29T06:35:31.009Z,52.40
2018-11-29T06:36:30.975Z,53.80
2018-11-29T06:37:30.949Z,55.70
2018-11-29T06:38:30.907Z,53.50
2018-11-29T06:39:30.871Z,51.90
2018-11-29T06:40:30.838Z,54.70
2018-11-29T06:41:30.806Z,54.90
2018-11-29T06:42:30.772Z,56.20
2018-11-29T06:43:30.735Z,55.10
2018-11-29T06:44:30.703Z,56.30
2018-11-29T06:45:30.666Z,52.10
2018-11-29T06:46:30.633Z,55.10
2018-11-29T06:47:30.600Z,54.20
2018-11-29T06:48:30.565Z,55.00
2018-11-29T06:49:30.529Z,51.80
2018-11-29T06:50:30.494Z,53.60
2018-11-29T06:51:30.461Z,55.30
2018-11-29T06:52:30.426Z,50.50
2018-11-29T06:53:30.394Z,54.60
2018-11-29T06:54:30.358Z,50.30
2018-11-29T06:55:30.323Z,54.70
2018-11-29T06:56:30.289Z,53.30
2018-11-29T06:57:30.257Z,55.60
2018-11-29T06:58:30.226Z,54.30
2018-11-29T06:59:30.188Z,50.30
2018-11-29T07:00:30.152Z,51.60
2018-11-29T07:01:30.118Z,52.20
2018-11-29T07:02:30.085Z,51.20
2018-11-29T07:03:30.055Z,52.90
2018-11-29T07:04:30.016Z,52.60
2018-11-29T07:05:29.986Z,52.90
2018-11-29T07:06:29.949Z,53.80
2018-11-29T07:07:29.912Z,52.20
2018-11-29T07:08:29.879Z,54.30
2018-11-29T07:09:29.849Z,52.10
2018-11-29T07:10:29.825Z,54.40
2018-11-29T07:11:29.778Z,49.90
2018-11-29T07:12:29.744Z,54.80
2018-11-29T07:13:29.708Z,52.20
2018-11-29T07:14:29.672Z,51.80
2018-11-29T07:15:29.641Z,54.40
2018-11-29T07:16:29.605Z,52.70
2018-11-29T07:17:29.573Z,53.10
2018-11-29T07:18:29.537Z,52.40
2018-11-29T07:19:29.504Z,51.50
2018-11-29T07:20:29.469Z,52.50
2018-11-29T07:21:29.433Z,52.10
2018-11-29T07:22:29.399Z,51.60
2018-11-29T07:23:29.366Z,51.60
2018-11-29T07:24:29.332Z,51.30
2018-11-29T07:25:29.301Z,48.70
2018-11-29T07:26:29.264Z,51.30
2018-11-29T07:27:29.228Z,50.80
2018-11-29T07:28:29.196Z,51.50
2018-11-29T07:29:29.163Z,51.30
2018-11-29T07:30:29.134Z,47.10
2018-11-29T07:31:29.095Z,51.20
2018-11-29T07:32:29.061Z,49.60
2018-11-29T07:33:29.026Z,47.60
2018-11-29T07:34:28.997Z,50.00
2018-11-29T07:35:28.958Z,46.50
2018-11-29T07:36:28.925Z,49.40
2018-11-29T07:37:28.888Z,49.60
2018-11-29T07:38:28.857Z,49.00
2018-11-29T07:39:28.824Z,50.50
2018-11-29T07:40:28.789Z,50.30
2018-11-29T07:41:28.765Z,53.80
2018-11-29T07:42:28.720Z,48.00
2018-11-29T07:43:28.688Z,47.50
2018-11-29T07:44:28.664Z,51.00
2018-11-29T07:45:28.619Z,47.30
2018-11-29T07:46:28.585Z,48.60
2018-11-29T07:47:28.550Z,48.50
2018-11-29T07:48:28.531Z,49.60
2018-11-29T07:49:28.484Z,48.70
2018-11-29T07:50:28.450Z,48.60
2018-11-29T07:51:28.419Z,49.20
2018-11-29T07:52:28.381Z,46.50
2018-11-29T07:53:28.346Z,50.30
2018-11-29T07:54:28.313Z,49.60
2018-11-29T07:55:28.279Z,47.60
2018-11-29T07:56:28.244Z,51.00
2018-11-29T07:57:28.212Z,48.00
2018-11-29T07:58:28.178Z,49.10
2018-11-29T07:59:28.143Z,46.90
2018-11-29T08:00:28.115Z,45.30
2018-11-29T08:01:28.077Z,48.70
2018-11-29T08:02:28.042Z,49.50
2018-11-29T08:03:28.008Z,48.70
2018-11-29T08:04:27.985Z,49.50
2018-11-29T08:05:27.941Z,47.10
2018-11-29T08:06:27.912Z,47.90
2018-11-29T08:07:27.872Z,48.80
2018-11-29T08:08:27.838Z,47.20
2018-11-29T08:09:27.806Z,49.20
2018-11-29T08:10:27.772Z,47.10
2018-11-29T08:11:27.737Z,50.90
2018-11-29T08:12:27.705Z,50.30
2018-11-29T08:13:27.673Z,46.90
2018-11-29T08:14:27.635Z,44.90
2018-11-29T08:15:27.603Z,49.70
2018-11-29T08:16:27.568Z,44.90
2018-11-29T08:17:27.536Z,47.90
2018-11-29T08:18:27.504Z,48.00
2018-11-29T08:19:27.468Z,48.70
2018-11-29T08:20:27.434Z,47.50
2018-11-29T08:21:27.399Z,50.00
2018-11-29T08:22:27.365Z,51.00
2018-11-29T08:23:27.337Z,51.00
2018-11-29T08:24:27.297Z,46.10
2018-11-29T08:25:27.265Z,48.10
2018-11-29T08:26:27.231Z,49.40
2018-11-29T08:27:27.197Z,49.40
2018-11-29T08:28:27.165Z,46.80
2018-11-29T08:29:27.135Z,50.30
2018-11-29T08:30:27.096Z,51.10
2018-11-29T08:31:27.069Z,47.10
2018-11-29T08:32:27.027Z,47.00
2018-11-29T08:33:26.998Z,47.10
2018-11-29T08:34:26.960Z,48.90
2018-11-29T08:35:26.933Z,47.10
2018-11-29T08:36:26.894Z,45.80
2018-11-29T08:37:26.863Z,48.80
2018-11-29T08:38:26.833Z,44.90
2018-11-29T08:39:26.792Z,46.60
2018-11-29T08:40:26.760Z,47.80
2018-11-29T08:41:26.725Z,48.90
2018-11-29T08:42:26.743Z,48.60
2018-11-29T08:43:26.878Z,48.60
2018-11-29T08:44:26.631Z,47.90
2018-11-29T08:45:26.595Z,46.10
2018-11-29T08:46:26.557Z,47.00
2018-11-29T08:47:26.533Z,46.80
2018-11-29T08:48:26.489Z,47.10
2018-11-29T08:49:26.460Z,47.70
2018-11-29T08:50:26.424Z,47.90
2018-11-29T08:51:26.390Z,47.80
2018-11-29T08:52:26.364Z,46.80
2018-11-29T08:53:26.323Z,44.10
2018-11-29T08:54:26.288Z,44.90
2018-11-29T08:55:26.256Z,46.30
2018-11-29T08:56:26.222Z,47.50
2018-11-29T08:57:26.190Z,44.70
2018-11-29T08:58:26.156Z,47.60
2018-11-29T08:59:26.121Z,46.10
2018-11-29T09:00:26.094Z,44.90
2018-11-29T09:01:26.058Z,46.00
2018-11-29T09:02:26.021Z,47.20
2018-11-29T09:03:25.989Z,45.60
2018-11-29T09:04:25.956Z,44.00
2018-11-29T09:05:25.923Z,47.70
2018-11-29T09:06:25.893Z,45.90
2018-11-29T09:07:25.896Z,46.90
2018-11-29T09:08:25.821Z,48.30
2018-11-29T09:09:25.791Z,44.70
2018-11-29T09:10:31.436Z,46.40
2018-11-29T09:11:25.724Z,46.60
2018-11-29T09:12:25.691Z,43.70
2018-11-29T09:13:25.658Z,41.30
2018-11-29T09:14:25.625Z,45.40
2018-11-29T09:15:25.592Z,45.70
2018-11-29T09:16:25.556Z,44.70
2018-11-29T09:17:25.531Z,46.90
2018-11-29T09:18:25.490Z,44.80
2018-11-29T09:19:25.463Z,47.00
2018-11-29T09:20:25.426Z,46.70
2018-11-29T09:21:25.390Z,46.40
2018-11-29T09:22:25.357Z,43.40
2018-11-29T09:23:25.335Z,46.30
2018-11-29T09:24:25.291Z,43.00
2018-11-29T09:25:25.261Z,44.70
2018-11-29T09:26:25.224Z,45.80
2018-11-29T09:27:25.192Z,41.30
2018-11-29T09:28:25.160Z,42.80
2018-11-29T09:29:25.127Z,43.50
2018-11-29T09:30:25.092Z,43.30
2018-11-29T09:31:25.061Z,44.70
2018-11-29T09:32:25.027Z,45.70
2018-11-29T09:33:24.996Z,43.90
2018-11-29T09:34:24.962Z,43.20
2018-11-29T09:35:24.927Z,44.00
2018-11-29T09:36:24.901Z,44.00
2018-11-29T09:37:24.863Z,43.60
2018-11-29T09:38:24.830Z,38.30
2018-11-29T09:39:24.799Z,43.20
2018-11-29T09:40:24.769Z,39.70
2018-11-29T09:41:24.734Z,45.00
2018-11-29T09:42:24.705Z,41.30
2018-11-29T09:43:24.675Z,39.70
2018-11-29T09:44:24.635Z,42.90
2018-11-29T09:45:24.606Z,40.70
2018-11-29T09:46:24.569Z,39.20
2018-11-29T09:47:24.540Z,41.80
2018-11-29T09:48:24.508Z,41.80
2018-11-29T09:49:24.476Z,41.10
2018-11-29T09:50:24.440Z,38.70
2018-11-29T09:51:24.406Z,42.90
2018-11-29T09:52:24.375Z,41.10
2018-11-29T09:53:24.342Z,43.50
2018-11-29T09:54:24.309Z,38.60
2018-11-29T09:55:24.276Z,41.80
2018-11-29T09:56:24.244Z,40.80
2018-11-29T09:57:24.213Z,36.50
2018-11-29T09:58:24.180Z,39.30
2018-11-29T09:59:24.147Z,39.70
2018-11-29T10:00:27.697Z,42.60
2018-11-29T10:01:24.082Z,35.10
2018-11-29T10:02:24.051Z,40.10
2018-11-29T10:03:24.017Z,33.70
2018-11-29T10:04:23.987Z,39.30
2018-11-29T10:05:23.953Z,37.00
2018-11-29T10:06:23.930Z,38.60
2018-11-29T10:07:23.895Z,39.50
2018-11-29T10:08:26.222Z,37.00
2018-11-29T10:09:23.903Z,35.90
2018-11-29T10:10:23.788Z,38.80
2018-11-29T10:11:24.120Z,37.90
2018-11-29T10:12:23.726Z,40.10
2018-11-29T10:13:23.693Z,42.30
2018-11-29T10:14:23.673Z,37.80
2018-11-29T10:15:23.628Z,36.10
2018-11-29T10:16:23.595Z,40.80
2018-11-29T10:17:23.563Z,39.90
2018-11-29T10:18:23.530Z,38.20
2018-11-29T10:19:23.497Z,36.10
2018-11-29T10:20:23.469Z,40.50
2018-11-29T10:21:23.432Z,39.30
2018-11-29T10:22:23.399Z,40.10
2018-11-29T10:23:23.367Z,40.20
2018-11-29T10:24:23.334Z,41.20
2018-11-29T10:25:23.302Z,40.00
2018-11-29T10:26:23.269Z,43.10
2018-11-29T10:27:23.237Z,41.70
2018-11-29T10:28:23.204Z,38.60
2018-11-29T10:29:23.175Z,42.30
2018-11-29T10:30:23.162Z,39.60
2018-11-29T10:31:23.122Z,39.00
2018-11-29T10:32:23.073Z,42.90
2018-11-29T10:33:23.042Z,41.70
2018-11-29T10:34:23.009Z,41.10
2018-11-29T10:35:22.973Z,39.70
2018-11-29T10:36:22.942Z,44.10
2018-11-29T10:37:22.909Z,41.00
2018-11-29T10:38:22.879Z,42.70
2018-11-29T10:39:22.846Z,42.10
2018-11-29T10:40:22.998Z,41.70
2018-11-29T10:41:22.782Z,41.30
2018-11-29T10:42:22.746Z,41.30
2018-11-29T10:43:22.738Z,39.90
2018-11-29T10:44:22.701Z,40.60
2018-11-29T10:45:22.648Z,39.10
2018-11-29T10:46:22.618Z,42.10
2018-11-29T10:47:22.584Z,39.20
2018-11-29T10:48:22.563Z,40.80
2018-11-29T10:49:22.518Z,40.50
2018-11-29T10:50:22.487Z,40.40
2018-11-29T10:51:23.206Z,41.70
2018-11-29T10:52:22.421Z,40.30
2018-11-29T10:53:22.389Z,41.10
2018-11-29T10:54:22.355Z,39.60
2018-11-29T10:55:22.327Z,42.00
2018-11-29T10:56:22.355Z,42.40
2018-11-29T10:57:22.265Z,41.20
2018-11-29T10:58:22.274Z,42.80
2018-11-29T10:59:22.194Z,41.30
2018-11-29T11:00:22.162Z,41.60
2018-11-29T11:01:22.128Z,39.80
2018-11-29T11:02:22.095Z,41.20
2018-11-29T11:03:22.063Z,41.90
2018-11-29T11:04:22.032Z,43.30
2018-11-29T11:05:22.044Z,39.50
2018-11-29T11:06:21.966Z,41.30
2018-11-29T11:07:21.933Z,42.50
2018-11-29T11:08:21.902Z,39.70
2018-11-29T11:09:21.868Z,41.00
2018-11-29T11:10:21.836Z,40.70
2018-11-29T11:11:21.804Z,40.50
2018-11-29T11:12:21.772Z,42.00
2018-11-29T11:13:21.740Z,41.40
2018-11-29T11:14:21.707Z,40.60
2018-11-29T11:15:21.682Z,41.70
2018-11-29T11:16:21.643Z,40.90
2018-11-29T11:17:21.610Z,41.30
2018-11-29T11:18:21.576Z,36.80
2018-11-29T11:19:21.549Z,41.40
2018-11-29T11:20:21.513Z,39.40
2018-11-29T11:21:21.480Z,37.90
2018-11-29T11:22:21.447Z,39.80
2018-11-29T11:23:21.415Z,39.30
2018-11-29T11:24:21.384Z,36.90
2018-11-29T11:25:21.352Z,41.30
2018-11-29T11:26:21.322Z,41.80
2018-11-29T11:27:21.286Z,40.80
2018-11-29T11:28:21.255Z,40.30
2018-11-29T11:29:21.224Z,40.20
2018-11-29T11:30:21.280Z,35.50
2018-11-29T11:31:21.224Z,41.80
2018-11-29T11:32:21.125Z,40.30
2018-11-29T11:33:21.099Z,39.10
2018-11-29T11:34:21.082Z,41.00
2018-11-29T11:35:21.029Z,40.40
2018-11-29T11:36:21.015Z,40.60
2018-11-29T11:37:20.965Z,39.10
2018-11-29T11:38:20.932Z,41.60
2018-11-29T11:39:20.903Z,40.80
2018-11-29T11:40:20.870Z,39.70
2018-11-29T11:41:20.841Z,40.20
2018-11-29T11:42:20.806Z,40.90
2018-11-29T11:43:20.777Z,39.60
2018-11-29T11:44:20.741Z,40.80
2018-11-29T11:45:20.712Z,40.80
2018-11-29T11:46:20.676Z,38.10
2018-11-29T11:47:20.649Z,40.30
2018-11-29T11:48:20.613Z,41.60
2018-11-29T11:49:20.581Z,39.40
2018-11-29T11:50:20.550Z,38.20
2018-11-29T11:51:20.518Z,40.00
2018-11-29T11:52:20.489Z,39.50
2018-11-29T11:53:20.455Z,38.80
2018-11-29T11:54:20.419Z,39.30
2018-11-29T11:55:20.388Z,40.40
2018-11-29T11:56:20.355Z,40.00
2018-11-29T11:57:20.323Z,40.70
2018-11-29T11:58:20.291Z,39.40
2018-11-29T11:59:20.264Z,38.90
2018-11-29T12:00:20.230Z,41.90
2018-11-29T12:01:20.206Z,41.10
2018-11-29T12:02:20.161Z,39.80
2018-11-29T12:03:20.130Z,41.60
2018-11-29T12:04:20.099Z,42.30
2018-11-29T12:05:20.067Z,41.30
2018-11-29T12:06:20.032Z,42.00
2018-11-29T12:07:20.011Z,41.00
2018-11-29T12:08:19.968Z,39.50
2018-11-29T12:09:19.934Z,41.00
2018-11-29T12:10:19.901Z,40.10
2018-11-29T12:11:19.871Z,41.70
2018-11-29T12:12:19.838Z,41.10
2018-11-29T12:13:19.823Z,40.20
2018-11-29T12:14:19.772Z,41.60
2018-11-29T12:15:19.739Z,40.50
2018-11-29T12:16:19.710Z,43.60
2018-11-29T12:17:19.674Z,42.30
2018-11-29T12:18:19.641Z,38.90
2018-11-29T12:19:19.610Z,41.90
2018-11-29T12:20:19.584Z,42.80
2018-11-29T12:21:19.547Z,41.70
2018-11-29T12:22:19.512Z,42.10
2018-11-29T12:23:19.481Z,40.70
2018-11-29T12:24:19.448Z,38.50
2018-11-29T12:25:19.415Z,41.60
2018-11-29T12:26:19.385Z,41.20
2018-11-29T12:27:19.354Z,41.10
2018-11-29T12:28:19.318Z,42.70
2018-11-29T12:29:19.290Z,41.10
2018-11-29T12:30:19.251Z,43.80
2018-11-29T12:31:19.221Z,42.70
2018-11-29T12:32:19.187Z,44.30
2018-11-29T12:33:19.157Z,42.70
2018-11-29T12:34:19.123Z,40.80
2018-11-29T12:35:19.109Z,43.60
2018-11-29T12:36:19.062Z,44.20
2018-11-29T12:37:19.026Z,43.40
2018-11-29T12:38:18.998Z,43.10
2018-11-29T12:39:18.961Z,42.60
2018-11-29T12:40:18.928Z,43.00
2018-11-29T12:41:18.897Z,41.70
2018-11-29T12:42:18.863Z,43.00
2018-11-29T12:43:18.830Z,44.40
2018-11-29T12:44:18.806Z,45.90
2018-11-29T12:45:18.772Z,43.30
2018-11-29T12:46:18.733Z,43.70
2018-11-29T12:47:18.702Z,44.70
2018-11-29T12:48:18.673Z,43.10
2018-11-29T12:49:18.637Z,43.60
2018-11-29T12:50:18.605Z,45.90
2018-11-29T12:51:18.571Z,40.50
2018-11-29T12:52:18.545Z,43.50